createdAt,value
2022-08-25T00:01:40.517Z,9.6
2022-08-25T00:05:50.849Z,17.4
2022-08-25T00:09:57.299Z,11.3
2022-08-25T00:12:05.828Z,10.4
2022-08-25T00:14:03.616Z,11.1
2022-08-25T00:16:06.868Z,11.4
2022-08-25T00:18:16.629Z,13.2
2022-08-25T00:20:16.270Z,12
2022-08-25T00:22:19.466Z,12.3
2022-08-25T00:24:22.745Z,10.8
2022-08-25T00:26:25.912Z,9.3
2022-08-25T00:28:29.106Z,9.4
2022-08-25T00:30:32.426Z,13.9
2022-08-25T00:36:45.090Z,9.8
2022-08-25T00:38:48.304Z,9.7
2022-08-25T00:40:51.508Z,10.4
2022-08-25T00:42:54.703Z,18.7
2022-08-25T00:44:57.919Z,23.6
2022-08-25T00:47:01.181Z,15.6
2022-08-25T00:49:07.408Z,11.9
2022-08-25T00:55:31.666Z,13.1
2022-08-25T00:59:37.969Z,12.5
2022-08-25T01:03:47.563Z,12.1
2022-08-25T01:05:50.793Z,12.2
2022-08-25T01:09:57.257Z,12.8
2022-08-25T01:14:03.851Z,13
2022-08-25T01:16:10.102Z,12.4
2022-08-25T01:22:19.748Z,12.9
2022-08-25T01:24:23.093Z,12.5
2022-08-25T01:26:30.701Z,13.6
2022-08-25T01:28:29.676Z,13
2022-08-25T01:32:39.376Z,13.1
2022-08-25T01:34:42.723Z,13.4
2022-08-25T01:36:46.061Z,15.1
2022-08-25T01:38:49.318Z,14.9
2022-08-25T01:40:52.580Z,14.1
2022-08-25T01:47:05.431Z,14.8
2022-08-25T01:49:08.770Z,16
2022-08-25T01:54:18.622Z,16.6
2022-08-25T01:58:28.388Z,16.2
2022-08-25T02:04:38.367Z,14.8
2022-08-25T02:06:41.708Z,14.9
2022-08-25T02:10:48.441Z,15.4
2022-08-25T02:14:58.287Z,17.5
2022-08-25T02:17:01.753Z,15.9
2022-08-25T02:19:05.011Z,15.2
2022-08-25T02:21:08.374Z,16.6
2022-08-25T02:23:11.745Z,14.7
2022-08-25T02:25:15.125Z,14.8
2022-08-25T02:27:21.659Z,16.1
2022-08-25T02:29:25.007Z,16.3
2022-08-25T02:31:28.389Z,16.4
2022-08-25T02:33:31.716Z,15.4
2022-08-25T02:35:35.117Z,15.5
2022-08-25T02:37:38.447Z,17.1
2022-08-25T02:39:41.805Z,14.3
2022-08-25T02:41:48.323Z,16.6
2022-08-25T02:43:51.625Z,16.7
2022-08-25T02:46:58.153Z,13.6
2022-08-25T02:49:01.376Z,15.1
2022-08-25T02:51:04.745Z,17.6
2022-08-25T02:59:21.111Z,16
2022-08-25T03:01:28.581Z,16.4
2022-08-25T03:05:31.108Z,15.9
2022-08-25T03:11:44.240Z,16.8
2022-08-25T03:17:54.384Z,16.7
2022-08-25T03:22:01.109Z,15
2022-08-25T03:26:12.534Z,17.3
2022-08-25T03:28:15.858Z,15.2
2022-08-25T03:30:19.243Z,16.3
2022-08-25T03:32:22.634Z,18.1
2022-08-25T03:34:25.993Z,17.2
2022-08-25T03:36:29.372Z,17
2022-08-25T03:38:35.851Z,19.4
2022-08-25T03:40:39.136Z,19.1
2022-08-25T03:42:44.977Z,17.6
2022-08-25T03:43:45.777Z,18.5
2022-08-25T03:45:49.215Z,17.9
2022-08-25T03:47:52.543Z,17.2
2022-08-25T03:49:55.921Z,18.4
2022-08-25T03:52:02.434Z,18.7
2022-08-25T03:54:05.815Z,19.2
2022-08-25T03:58:12.594Z,17
2022-08-25T04:02:19.445Z,22
2022-08-25T04:04:22.762Z,17.4
2022-08-25T04:06:29.228Z,20
2022-08-25T04:08:32.543Z,18.8
2022-08-25T04:10:35.921Z,16.1
2022-08-25T04:14:42.716Z,17.9
2022-08-25T04:16:46.203Z,17.9
2022-08-25T04:18:49.478Z,17.5
2022-08-25T04:31:12.847Z,21.5
2022-08-25T04:35:22.714Z,20.3
2022-08-25T04:41:53.217Z,16.8
2022-08-25T04:43:56.634Z,16.6
2022-08-25T04:46:00.062Z,15.6
2022-08-25T04:48:06.707Z,16.1
2022-08-25T04:50:09.801Z,17.4
2022-08-25T04:52:14.601Z,14.7
2022-08-25T04:54:16.627Z,14.7
2022-08-25T04:56:20.027Z,19.3
2022-08-25T04:58:23.451Z,15.2
2022-08-25T05:00:26.871Z,13.4
2022-08-25T05:02:33.363Z,13.7
2022-08-25T05:04:36.829Z,15.1
2022-08-25T05:06:40.199Z,17.2
2022-08-25T05:08:45.997Z,14.8
2022-08-25T05:10:47.049Z,21.9
2022-08-25T05:12:50.464Z,16.6
2022-08-25T05:14:53.856Z,16
2022-08-25T05:17:00.397Z,16.7
2022-08-25T05:19:03.829Z,14.3
2022-08-25T05:21:07.252Z,12.9
2022-08-25T05:23:10.654Z,14.4
2022-08-25T05:25:14.084Z,13.1
2022-08-25T05:27:17.468Z,12.9
2022-08-25T05:36:37.513Z,11.9
2022-08-25T05:38:40.943Z,11.6
2022-08-25T05:46:57.725Z,12.5
2022-08-25T05:49:01.126Z,14
2022-08-25T05:51:04.582Z,9.1
2022-08-25T05:53:07.975Z,11.3
2022-08-25T05:55:11.400Z,10.3
2022-08-25T05:57:14.786Z,13.5
2022-08-25T05:59:21.291Z,9.7
2022-08-25T06:01:24.706Z,8.7
2022-08-25T06:03:28.194Z,7
2022-08-25T06:05:31.438Z,12.7
2022-08-25T06:15:51.494Z,8.8
2022-08-25T06:17:57.821Z,8.5
2022-08-25T06:22:01.476Z,6.9
2022-08-25T06:28:14.287Z,7.9
2022-08-25T06:32:20.797Z,6.9
2022-08-25T06:33:23.911Z,15.4
2022-08-25T06:35:27.150Z,8.1
2022-08-25T06:37:30.390Z,7.5
2022-08-25T06:41:39.861Z,9.1
2022-08-25T06:43:48.089Z,14.3
2022-08-25T06:45:46.320Z,7.5
2022-08-25T06:47:49.545Z,9.2
2022-08-25T06:49:52.790Z,9.6
2022-08-25T06:51:55.979Z,8
2022-08-25T06:53:59.173Z,6.9
2022-08-25T06:58:10.305Z,12
2022-08-25T07:00:12.472Z,14.5
2022-08-25T07:02:15.028Z,4.6
2022-08-25T07:04:18.195Z,4.4
2022-08-25T07:06:21.374Z,5
2022-08-25T07:08:24.555Z,11.5
2022-08-25T07:10:30.767Z,5
2022-08-25T07:12:33.896Z,4.6
2022-08-25T07:14:37.103Z,4.4
2022-08-25T07:16:40.389Z,3.1
2022-08-25T07:18:44.204Z,2.8
2022-08-25T07:20:46.579Z,3
2022-08-25T07:22:49.665Z,3.5
2022-08-25T07:24:55.842Z,8.2
2022-08-25T07:26:58.974Z,2.7
2022-08-25T07:29:02.115Z,4
2022-08-25T07:30:05.176Z,3.1
2022-08-25T07:32:08.346Z,3.8
2022-08-25T07:34:11.470Z,6.7
2022-08-25T07:36:14.574Z,2.1
2022-08-25T07:42:26.874Z,10.9
2022-08-25T07:44:30.061Z,4.9
2022-08-25T07:46:33.082Z,3.5
2022-08-25T07:52:45.303Z,5.6
2022-08-25T07:54:48.366Z,4.9
2022-08-25T07:56:51.423Z,4.7
2022-08-25T07:58:54.481Z,9.1
2022-08-25T08:00:57.530Z,4.6
2022-08-25T08:09:12.740Z,6.8
2022-08-25T08:11:15.733Z,6.1
2022-08-25T08:13:19.052Z,3.8
2022-08-25T08:15:21.774Z,5
2022-08-25T08:17:24.752Z,3.3
2022-08-25T08:19:27.755Z,4.6
2022-08-25T08:21:33.820Z,7
2022-08-25T08:23:36.797Z,4.2
2022-08-25T08:28:01.216Z,9
2022-08-25T08:30:04.178Z,3.8
2022-08-25T08:32:07.113Z,2.9
2022-08-25T08:34:13.078Z,4.9
2022-08-25T08:36:16.036Z,5.5
2022-08-25T08:40:21.981Z,4.3
2022-08-25T08:42:24.685Z,3.2
2022-08-25T08:44:27.573Z,3
2022-08-25T08:48:36.387Z,8.6
2022-08-25T08:52:42.037Z,6.6
2022-08-25T08:56:48.309Z,11.4
2022-08-25T09:00:53.347Z,3
2022-08-25T09:05:02.042Z,4.4
2022-08-25T09:07:04.866Z,4.6
2022-08-25T09:13:15.451Z,13
2022-08-25T09:15:16.053Z,4.4
2022-08-25T09:17:21.986Z,9.1
2022-08-25T09:19:24.715Z,7.1
2022-08-25T09:21:29.110Z,3
2022-08-25T09:22:35.910Z,2.5
2022-08-25T09:24:34.766Z,3
2022-08-25T09:26:37.558Z,2.6
2022-08-25T09:28:40.360Z,4.6
2022-08-25T09:30:46.236Z,5.7
2022-08-25T09:34:51.799Z,6.3
2022-08-25T09:38:57.334Z,6.3
2022-08-25T09:41:00.897Z,5.7
2022-08-25T09:43:03.014Z,8.7
2022-08-25T09:47:11.559Z,3.9
2022-08-25T09:49:14.325Z,2.2
2022-08-25T09:51:17.104Z,4.1
2022-08-25T09:53:21.754Z,3.1
2022-08-25T09:55:22.618Z,9.1
2022-08-25T09:57:25.372Z,2.8
2022-08-25T09:59:35.169Z,2.7
2022-08-25T10:05:39.450Z,2.2
2022-08-25T10:07:42.186Z,7
2022-08-25T10:09:44.908Z,1.8
2022-08-25T10:11:47.633Z,2.4
2022-08-25T10:13:53.453Z,3.8
2022-08-25T10:15:56.198Z,3.5
2022-08-25T10:17:58.874Z,3.9
2022-08-25T10:19:01.771Z,11.6
2022-08-25T10:21:04.469Z,2.1
2022-08-25T10:23:07.417Z,4.9
2022-08-25T10:25:09.853Z,4.8
2022-08-25T10:27:15.654Z,2.4
2022-08-25T10:29:18.438Z,2.6
2022-08-25T10:31:21.085Z,2.1
2022-08-25T10:33:23.656Z,1.8
2022-08-25T10:35:26.301Z,3.3
2022-08-25T10:37:32.747Z,2.8
2022-08-25T10:39:36.414Z,2.8
2022-08-25T10:41:37.401Z,1.5
2022-08-25T10:43:40.040Z,3.4
2022-08-25T10:45:42.678Z,2
2022-08-25T10:47:45.446Z,2.5
2022-08-25T10:49:50.124Z,4.2
2022-08-25T10:51:51.124Z,1.6
2022-08-25T10:53:53.233Z,5.3
2022-08-25T10:55:59.001Z,2.1
2022-08-25T10:58:01.620Z,2.1
2022-08-25T11:00:04.185Z,6.1
2022-08-25T11:02:06.901Z,2.2
2022-08-25T11:04:09.412Z,2.3
2022-08-25T11:06:11.976Z,1.7
2022-08-25T11:10:20.206Z,1.9
2022-08-25T11:12:22.724Z,1.5
2022-08-25T11:14:25.248Z,1.8
2022-08-25T11:15:28.102Z,1.8
2022-08-25T11:19:33.828Z,4.2
2022-08-25T11:21:35.904Z,7
2022-08-25T11:23:41.197Z,5.4
2022-08-25T11:25:43.662Z,1.8
2022-08-25T11:27:46.102Z,1.5
2022-08-25T11:31:53.614Z,3.3
2022-08-25T11:33:53.315Z,1.7
2022-08-25T11:38:01.205Z,1.9
2022-08-25T11:40:03.718Z,2.8
2022-08-25T11:46:10.504Z,2.5
2022-08-25T11:52:20.300Z,3.4
2022-08-25T11:54:22.460Z,5.4
2022-08-25T11:56:24.668Z,6.7
2022-08-25T12:02:30.962Z,2.2
2022-08-25T12:04:33.193Z,7
2022-08-25T12:08:40.169Z,5.6
2022-08-25T12:10:42.224Z,6.8
2022-08-25T12:13:02.829Z,3.6
2022-08-25T12:15:04.810Z,2
2022-08-25T12:17:06.840Z,1.4
2022-08-25T12:19:11.851Z,1.7
2022-08-25T12:21:13.809Z,1.1
2022-08-25T12:23:15.781Z,8.9
2022-08-25T12:27:19.702Z,1.4
2022-08-25T12:29:21.651Z,0.7
2022-08-25T12:31:23.674Z,1.6
2022-08-25T12:33:28.621Z,1.2
2022-08-25T12:35:30.556Z,1.2
2022-08-25T12:37:32.469Z,3.8
2022-08-25T12:39:34.367Z,4.5
2022-08-25T12:45:40.183Z,1.9
2022-08-25T12:49:47.061Z,1
2022-08-25T12:51:49.003Z,6.2
2022-08-25T12:53:50.803Z,1.3
2022-08-25T12:55:52.703Z,1.1
2022-08-25T12:57:54.571Z,2.9
2022-08-25T12:59:56.444Z,1.2
2022-08-25T13:02:03.035Z,11.5
2022-08-25T13:04:03.328Z,7.3
2022-08-25T13:06:05.171Z,1.7
2022-08-25T13:07:07.612Z,1.4
2022-08-25T13:09:09.528Z,1.1
2022-08-25T13:11:11.358Z,1.4
2022-08-25T13:15:18.223Z,1.4
2022-08-25T13:17:20.123Z,1.1
2022-08-25T13:19:22.043Z,1.1
2022-08-25T13:21:24.018Z,1.8
2022-08-25T13:25:32.290Z,2.3
2022-08-25T13:27:29.854Z,1.1
2022-08-25T13:29:37.394Z,3.9
2022-08-25T13:31:38.187Z,1
2022-08-25T13:33:40.572Z,3.9
2022-08-25T13:35:40.831Z,1.4
2022-08-25T13:37:42.828Z,1.8
2022-08-25T13:39:55.929Z,2.6
2022-08-25T13:41:46.935Z,2.5
2022-08-25T13:43:52.156Z,3.7
2022-08-25T13:45:54.285Z,3.2
2022-08-25T13:47:56.378Z,1.3
2022-08-25T13:49:59.229Z,2.1
2022-08-25T13:52:00.549Z,1
2022-08-25T13:54:02.536Z,1.4
2022-08-25T13:56:04.648Z,1.5
2022-08-25T13:58:12.774Z,7.4
2022-08-25T14:00:11.598Z,2.6
2022-08-25T14:02:19.340Z,1.6
2022-08-25T14:03:16.225Z,2.2
2022-08-25T14:05:18.147Z,1
2022-08-25T14:07:20.474Z,2.2
2022-08-25T14:09:27.022Z,2.6
2022-08-25T14:11:27.213Z,3.7
2022-08-25T14:13:31.262Z,1.7
2022-08-25T14:15:31.992Z,2.5
2022-08-25T14:17:40.039Z,1.4
2022-08-25T14:23:39.784Z,5
2022-08-25T14:25:45.059Z,1.6
2022-08-25T14:29:52.675Z,7.7
2022-08-25T14:31:51.844Z,1.8
2022-08-25T14:33:54.123Z,2.2
2022-08-25T14:35:56.404Z,1.8
2022-08-25T14:37:58.745Z,1.3
2022-08-25T14:40:04.312Z,4.4
2022-08-25T14:42:06.736Z,2
2022-08-25T14:44:09.066Z,1.7
2022-08-25T14:46:15.512Z,1.5
2022-08-25T14:48:13.904Z,8.5
2022-08-25T14:50:16.329Z,2
2022-08-25T14:52:18.806Z,1.7
2022-08-25T14:54:24.406Z,8.7
2022-08-25T14:56:27.746Z,1.6
2022-08-25T14:58:33.901Z,3.9
2022-08-25T14:59:32.300Z,2.4
2022-08-25T15:01:34.787Z,3.1
2022-08-25T15:03:37.294Z,4.2
2022-08-25T15:05:39.803Z,2.5
2022-08-25T15:07:45.478Z,2.8
2022-08-25T15:10:00.536Z,2.3
2022-08-25T15:11:50.937Z,3.7
2022-08-25T15:13:54.698Z,2.7
2022-08-25T15:15:58.163Z,1.7
2022-08-25T15:18:01.166Z,4.5
2022-08-25T15:20:02.449Z,3
2022-08-25T15:22:08.136Z,5.8
2022-08-25T15:24:10.729Z,5.2
2022-08-25T15:26:13.322Z,1.8
2022-08-25T15:28:17.163Z,3
2022-08-25T15:30:18.570Z,1.3
2022-08-25T15:32:21.143Z,2.6
2022-08-25T15:34:23.770Z,2
2022-08-25T15:38:32.071Z,1.9
2022-08-25T15:40:34.738Z,5
2022-08-25T15:44:39.993Z,1.5
2022-08-25T15:46:46.943Z,6.8
2022-08-25T15:48:45.281Z,1.4
2022-08-25T15:50:50.975Z,2.4
2022-08-25T15:54:56.244Z,1.4
2022-08-25T15:57:24.686Z,8.1
2022-08-25T15:59:22.082Z,1.4
2022-08-25T16:01:24.905Z,4.2
2022-08-25T16:03:30.525Z,2.2
2022-08-25T16:05:33.139Z,1.6
2022-08-25T16:07:35.767Z,2.1
2022-08-25T16:09:38.427Z,2.7
2022-08-25T16:11:41.098Z,1.5
2022-08-25T16:13:43.742Z,5.6
2022-08-25T16:15:46.659Z,5.9
2022-08-25T16:17:52.164Z,1.7
2022-08-25T16:19:54.829Z,1.2
2022-08-25T16:21:57.444Z,6.8
2022-08-25T16:24:01.187Z,1.3
2022-08-25T16:26:02.734Z,6.3
2022-08-25T16:28:05.384Z,1.2
2022-08-25T16:30:08.069Z,1.1
2022-08-25T16:34:16.484Z,2
2022-08-25T16:36:19.126Z,1.2
2022-08-25T16:38:21.767Z,1.4
2022-08-25T16:40:24.478Z,1.3
2022-08-25T16:42:27.087Z,1.8
2022-08-25T16:45:00.582Z,1.3
2022-08-25T16:46:35.552Z,2.6
2022-08-25T16:48:38.212Z,1.4
2022-08-25T16:50:40.876Z,1.3
2022-08-25T16:51:44.110Z,2.9
2022-08-25T16:53:49.619Z,2
2022-08-25T16:55:49.134Z,2.9
2022-08-25T16:57:51.724Z,10.4
2022-08-25T16:59:57.482Z,1.8
2022-08-25T17:02:00.245Z,1.5
2022-08-25T17:04:02.819Z,1.7
2022-08-25T17:06:05.580Z,5.5
2022-08-25T17:08:08.297Z,1.6
2022-08-25T17:10:12.688Z,4
2022-08-25T17:12:13.534Z,13.7
2022-08-25T17:14:19.307Z,3
2022-08-25T17:16:22.036Z,9.2
2022-08-25T17:18:24.708Z,3.5
2022-08-25T17:20:27.866Z,4
2022-08-25T17:22:30.068Z,2.4
2022-08-25T17:24:33.398Z,5.7
2022-08-25T17:26:35.424Z,2.2
2022-08-25T17:28:41.218Z,2
2022-08-25T17:30:43.926Z,1.4
2022-08-25T17:32:46.647Z,4.5
2022-08-25T17:34:49.323Z,6.4
2022-08-25T17:36:52.057Z,1.9
2022-08-25T17:38:54.777Z,1.6
2022-08-25T17:40:57.500Z,6.7
2022-08-25T17:43:03.343Z,2.1
2022-08-25T17:45:06.064Z,6.7
2022-08-25T17:47:09.014Z,1.9
2022-08-25T17:48:11.726Z,1.6
2022-08-25T17:50:14.443Z,2.1
2022-08-25T17:52:17.192Z,2.2
2022-08-25T17:54:19.963Z,3
2022-08-25T17:56:25.815Z,1.7
2022-08-25T17:58:28.662Z,1.8
2022-08-25T18:00:31.361Z,1.8
2022-08-25T18:02:34.181Z,7.1
2022-08-25T18:04:36.948Z,2.8
2022-08-25T18:06:39.732Z,2.4
2022-08-25T18:08:42.567Z,3
2022-08-25T18:10:48.439Z,1.7
2022-08-25T18:12:51.273Z,2.3
2022-08-25T18:14:54.070Z,1.6
2022-08-25T18:29:17.321Z,5
2022-08-25T18:31:20.126Z,1.9
2022-08-25T18:33:22.835Z,2.1
2022-08-25T18:35:26.701Z,2.7
2022-08-25T18:37:28.634Z,2.2
2022-08-25T18:39:34.941Z,2.9
2022-08-25T18:41:37.446Z,7.9
2022-08-25T18:46:46.406Z,3
2022-08-25T18:48:49.204Z,4.6
2022-08-25T18:50:52.111Z,1.8
2022-08-25T18:52:58.124Z,2.1
2022-08-25T18:55:01.034Z,4.2
2022-08-25T18:57:03.976Z,5.9
2022-08-25T18:59:06.921Z,4.3
2022-08-25T19:01:09.874Z,2.3
2022-08-25T19:03:12.812Z,7.5
2022-08-25T19:05:15.757Z,5.3
2022-08-25T19:07:21.756Z,3.4
2022-08-25T19:09:24.700Z,2.8
2022-08-25T19:11:27.645Z,2.7
2022-08-25T19:13:30.577Z,3.4
2022-08-25T19:15:33.550Z,8.2
2022-08-25T19:17:37.467Z,2.6
2022-08-25T19:19:39.429Z,4.4
2022-08-25T19:21:45.422Z,6.3
2022-08-25T19:23:48.460Z,3.1
2022-08-25T19:29:57.228Z,2.5
2022-08-25T19:32:01.383Z,8.5
2022-08-25T19:34:03.107Z,6.6
2022-08-25T19:44:37.373Z,10
2022-08-25T19:46:38.556Z,5.2
2022-08-25T19:50:47.536Z,6.4
2022-08-25T19:54:53.422Z,5.7
2022-08-25T19:56:56.449Z,3.1
2022-08-25T19:58:59.561Z,4.5
2022-08-25T20:01:02.511Z,3
2022-08-25T20:03:08.713Z,7.1
2022-08-25T20:09:35.557Z,9.3
2022-08-25T20:11:20.475Z,10.3
2022-08-25T20:13:23.522Z,6.7
2022-08-25T20:15:26.493Z,6.7
2022-08-25T20:17:32.563Z,3.7
2022-08-25T20:19:35.605Z,5.3
2022-08-25T20:21:38.639Z,8.4
2022-08-25T20:23:41.658Z,11.4
2022-08-25T20:25:44.688Z,8.7
2022-08-25T20:27:47.716Z,7.9
2022-08-25T20:29:50.756Z,13.7
2022-08-25T20:31:56.825Z,13.7
2022-08-25T20:34:02.861Z,10.5
2022-08-25T20:37:05.937Z,11.2
2022-08-25T20:39:08.988Z,13.6
2022-08-25T20:41:12.054Z,20.2
2022-08-25T20:43:15.099Z,15.6
2022-08-25T20:45:21.196Z,12.9
2022-08-25T20:47:24.270Z,16
2022-08-25T20:49:27.277Z,17.5
2022-08-25T20:51:30.357Z,14.4
2022-08-25T20:53:33.394Z,17.3
2022-08-25T20:55:42.250Z,23.4
2022-08-25T20:57:39.544Z,27.1
2022-08-25T20:59:45.647Z,28.7
2022-08-25T21:01:48.926Z,27.8
2022-08-25T21:03:51.802Z,28.1
2022-08-25T21:05:54.897Z,34.4
2022-08-25T21:07:59.506Z,31.8
2022-08-25T21:10:02.714Z,33.7
2022-08-25T21:12:05.740Z,33
2022-08-25T21:14:11.765Z,32.3
2022-08-25T21:16:15.120Z,36.1
2022-08-25T21:18:17.961Z,39.6
2022-08-25T21:20:21.048Z,38.4
2022-08-25T21:22:24.153Z,38.6
2022-08-25T21:24:27.259Z,38.3
2022-08-25T21:26:30.366Z,37.2
2022-08-25T21:28:36.513Z,39.9
2022-08-25T21:30:39.667Z,39.5
2022-08-25T21:32:52.978Z,45.5
2022-08-25T21:33:45.764Z,39.8
2022-08-25T21:35:48.883Z,39.4
2022-08-25T21:37:53.537Z,37.8
2022-08-25T21:39:55.155Z,36.5
2022-08-25T21:42:01.370Z,37.6
2022-08-25T21:44:04.536Z,45
2022-08-25T21:56:26.413Z,42.2
2022-08-25T21:58:29.298Z,40.4
2022-08-25T22:00:32.447Z,35.3
2022-08-25T22:02:35.637Z,35.4
2022-08-25T22:04:38.836Z,31.7
2022-08-25T22:06:41.872Z,34.1
2022-08-25T22:08:45.033Z,37.7
2022-08-25T22:10:51.183Z,35.7
2022-08-25T22:12:54.343Z,33.6
2022-08-25T22:17:00.742Z,34.9
2022-08-25T22:19:03.862Z,44.6
2022-08-25T22:21:08.646Z,37.2
2022-08-25T22:27:19.575Z,35.2
2022-08-25T22:29:25.382Z,36.2
2022-08-25T22:30:25.967Z,39.8
2022-08-25T22:32:29.030Z,41.4
2022-08-25T22:34:32.530Z,35
2022-08-25T22:36:35.361Z,31.9
2022-08-25T22:38:41.582Z,32.2
2022-08-25T22:40:44.773Z,31
2022-08-25T22:42:48.295Z,33.8
2022-08-25T22:44:51.146Z,31
2022-08-25T22:46:54.314Z,31.4
2022-08-25T22:48:57.509Z,29.8
2022-08-25T22:51:00.701Z,30.8
2022-08-25T22:53:10.885Z,35.3
2022-08-25T22:55:11.184Z,28.4
2022-08-25T22:57:13.322Z,25.1
2022-08-25T22:59:16.455Z,25.2
2022-08-25T23:07:32.267Z,29.6
2022-08-25T23:11:38.862Z,28.4
2022-08-25T23:13:42.018Z,28.6
2022-08-25T23:15:45.088Z,30.1
2022-08-25T23:17:48.274Z,24.4
2022-08-25T23:19:51.483Z,21.6
2022-08-25T23:21:57.738Z,22.5
2022-08-25T23:24:00.915Z,20
2022-08-25T23:26:04.104Z,27.3
2022-08-25T23:28:28.033Z,22.4
2022-08-25T23:30:31.199Z,22.6
2022-08-25T23:34:40.612Z,19.6
2022-08-25T23:36:43.974Z,22.7
2022-08-25T23:38:51.527Z,16.7
2022-08-25T23:42:53.479Z,20.3
2022-08-25T23:44:56.676Z,15.7
2022-08-25T23:46:59.902Z,16.3
2022-08-25T23:49:06.163Z,13.6
2022-08-25T23:51:09.370Z,19.6
2022-08-25T23:53:12.554Z,25.1
2022-08-25T23:57:18.983Z,19.1
2022-08-25T23:59:23.995Z,16.5
